Notice: Undefined index: language in /home/u908952976/domains/airgaviota-va.com/public_html/vam/index.php on line 25
AirGaviota-VA

... VIRTUAL FLIGHT...OUR PASSION



 FLIGHT DETAILS
Pilot: GVT462 Peter Voksan Aircraft: REDEYES - ANTONOV AN-2 (32V_64B) AN-2-GAVIOTAAIRVAAEROTAXI Distance: 130NM
Departure MUSC Arrival MUVR Duration 01:13
Validation Validated Type Charter Tail Number GV-AET
ZFW 4085 Block Fuel/Initial FOB 119/0 Flight Fuel 108
Passengers 20 Cargo 0 Alternate MUHA
Departure Time 2020 Cruise Speed 120 Flight Level 2500
Flight Type VFR Aircraft Type AN2 Weight Unit Kg
Date 07-10-2020 Pilot Comments Network IVAO
Crashed No Validator Comments Flight Rating -30

 ROUTE
ROUTE SANTA DOMINGO
REMARKS AIRGAVIOTA AEROTAXI VFR TOUR LEG15.
 FLIGHT FAILURES
Crashed OK Beacon off & Engine Running Fail KIAS Above 250 below 10000 FT OK
Lights OFF below 10000 FT OK Lights ON above 10000 FT OK Stall OK
Overspeed OK Flight paused OK Refueling OK
Slew detected OK Taxi & Taxi lights off OK Take off & lights off OK
Landing & lights off OK Landed in not planned airport OK Taxi Speed Fail
Wrong altimeter in Take off OK Wrong altimeter in Landing OK
 LANDING ANALYSIS
Landing wind 208º/3 kt Landing heading 311
Landing VS: -108.42 ft/min Landing IAS: 50.22 kt
Landing Force G 1.2 G Landing Bank -2.1
Landing Pitch 6.1 Landing Flaps 0
Navigation Lights ON Landing Lights ON
Beacon Lights OFF Strobe Lights OFF
 FLIGHT MAP
 ALTITUDE CHART
 FLIGHT FINANCIAL REPORT
 MAIN EVENTS
DATE EVENTIASALTITUDE
2020-10-07 22:12:12 SIM ACARS version 1.4.10347
2020-10-07 22:12:12 BOARDING0347
2020-10-07 22:13:58 STARTING ENGINE 1 0347
2020-10-07 22:13:58 BEACON LIGHT OFF & ENGINE ON0347
2020-10-07 22:15:41 FLAPS EXTENSION 2 % 0347
2020-10-07 22:15:41 FLAPS EXTENSION 4 % 0347
2020-10-07 22:15:41 FLAPS EXTENSION 7 % 0347
2020-10-07 22:15:41 FLAPS EXTENSION 9 % 0347
2020-10-07 22:15:41 FLAPS EXTENSION 10 % 0347
2020-10-07 22:15:42 FLAPS EXTENSION 12 % 0347
2020-10-07 22:15:42 FLAPS EXTENSION 14 % 0347
2020-10-07 22:15:42 FLAPS EXTENSION 14 % 0347
2020-10-07 22:15:43 FLAPS EXTENSION 16 % 0347
2020-10-07 22:15:43 FLAPS EXTENSION 18 % 0347
2020-10-07 22:15:43 FLAPS EXTENSION 19 % 0347
2020-10-07 22:15:44 FLAPS EXTENSION 21 % 0347
2020-10-07 22:15:44 FLAPS EXTENSION 23 % 0347
2020-10-07 22:15:44 FLAPS EXTENSION 24 % 0347
2020-10-07 22:15:44 FLAPS EXTENSION 26 % 0347
2020-10-07 22:15:44 FLAPS EXTENSION 29 % 0347
2020-10-07 22:15:44 FLAPS EXTENSION 30 % 0347
2020-10-07 22:15:53 FLAPS EXTENSION 31 % 0347
2020-10-07 22:15:53 FLAPS EXTENSION 32 % 0347
2020-10-07 22:15:53 FLAPS EXTENSION 34 % 0347
2020-10-07 22:15:53 FLAPS EXTENSION 34 % 0347
2020-10-07 22:15:53 FLAPS EXTENSION 36 % 0347
2020-10-07 22:15:53 FLAPS EXTENSION 36 % 0347
2020-10-07 22:20:17 TAXI TO THE RWY 4347
2020-10-07 22:22:16 ROLLING FOR TAKE OFF44347
2020-10-07 22:22:16 TAKE OFF46348
2020-10-07 22:23:21 FLAPS EXTENSION 34 % 66827
2020-10-07 22:23:22 FLAPS EXTENSION 33 % 66829
2020-10-07 22:23:22 FLAPS EXTENSION 32 % 67832
2020-10-07 22:23:22 FLAPS EXTENSION 30 % 67835
2020-10-07 22:23:22 FLAPS EXTENSION 28 % 66837
2020-10-07 22:23:22 FLAPS EXTENSION 26 % 66840
2020-10-07 22:23:22 FLAPS EXTENSION 25 % 66843
2020-10-07 22:23:23 FLAPS EXTENSION 23 % 66845
2020-10-07 22:23:23 FLAPS EXTENSION 20 % 65849
2020-10-07 22:23:23 FLAPS EXTENSION 19 % 64851
2020-10-07 22:23:23 FLAPS EXTENSION 17 % 64854
2020-10-07 22:23:23 FLAPS EXTENSION 16 % 64857
2020-10-07 22:23:23 FLAPS EXTENSION 13 % 64861
2020-10-07 22:23:23 FLAPS EXTENSION 11 % 63864
2020-10-07 22:23:24 FLAPS EXTENSION 9 % 62867
2020-10-07 22:23:24 FLAPS EXTENSION 8 % 62870
2020-10-07 22:23:24 FLAPS EXTENSION 6 % 61873
2020-10-07 22:23:24 FLAPS EXTENSION 4 % 61877
2020-10-07 22:23:24 FLAPS EXTENSION 2 % 61879
2020-10-07 22:23:24 FLAPS EXTENSION 1 % 60882
2020-10-07 22:23:25 FLAPS EXTENSION 0 % 60885
2020-10-07 22:24:46 CRUISE841121
2020-10-07 22:26:06 CLIMBING781468
2020-10-07 22:26:46 CRUISE911501
2020-10-07 22:29:26 DESCEND1151362
2020-10-07 22:30:56 CRUISE1051172
2020-10-07 22:32:16 DESCEND1051185
2020-10-07 22:33:26 CLIMBING901408
2020-10-07 22:33:56 DESCEND1101262
2020-10-07 22:34:26 CRUISE1021276
2020-10-07 22:35:26 CLIMBING851282
2020-10-07 22:37:26 CRUISE1051020
2020-10-07 22:45:06 CLIMBING981632
2020-10-07 22:45:56 CRUISE961631
2020-10-07 22:46:56 CLIMBING951776
2020-10-07 22:47:36 CRUISE961757
2020-10-07 22:48:36 CLIMBING861910
2020-10-07 22:50:46 CRUISE822131
2020-10-07 22:56:26 DESCEND1091576
2020-10-07 22:57:26 CRUISE1091390
2020-10-07 22:58:56 DESCEND1121032
2020-10-07 22:59:26 CLIMBING991147
2020-10-07 22:59:56 CRUISE1021160
2020-10-07 23:01:06 CLIMBING991270
2020-10-07 23:01:56 CRUISE911417
2020-10-07 23:03:16 CLIMBING861633
2020-10-07 23:04:16 CRUISE901792
2020-10-07 23:06:46 DESCEND1021802
2020-10-07 23:09:26 CRUISE1061744
2020-10-07 23:09:56 DESCEND1201357
2020-10-07 23:10:26 CLIMBING911669
2020-10-07 23:13:36 CRUISE961834
2020-10-07 23:15:06 DESCEND1071797
2020-10-07 23:16:06 CRUISE1101529
2020-10-07 23:18:16 DESCEND1071462
2020-10-07 23:20:26 CLIMBING871209
2020-10-07 23:21:26 CRUISE991181
2020-10-07 23:21:12 CLIMBING1001228
2020-10-07 23:22:52 CRUISE1041181
2020-10-07 23:24:42 CLIMBING851376
2020-10-07 23:26:12 CRUISE951472
2020-10-07 23:32:52 DESCEND1161256
2020-10-07 23:34:54 FLAPS EXTENSION 1 % 63601
2020-10-07 23:34:54 FLAPS EXTENSION 4 % 63599
2020-10-07 23:34:54 FLAPS EXTENSION 6 % 63598
2020-10-07 23:34:55 FLAPS EXTENSION 8 % 63598
2020-10-07 23:34:55 FLAPS EXTENSION 11 % 63596
2020-10-07 23:34:55 FLAPS EXTENSION 12 % 63596
2020-10-07 23:34:55 FLAPS EXTENSION 15 % 63595
2020-10-07 23:34:55 FLAPS EXTENSION 16 % 62594
2020-10-07 23:34:55 FLAPS EXTENSION 18 % 62593
2020-10-07 23:34:56 FLAPS EXTENSION 21 % 62592
2020-10-07 23:34:56 FLAPS EXTENSION 22 % 62591
2020-10-07 23:34:56 FLAPS EXTENSION 25 % 61590
2020-10-07 23:34:56 FLAPS EXTENSION 28 % 61590
2020-10-07 23:34:56 FLAPS EXTENSION 30 % 61589
2020-10-07 23:34:57 FLAPS EXTENSION 33 % 61588
2020-10-07 23:34:57 FLAPS EXTENSION 35 % 60587
2020-10-07 23:34:57 FLAPS EXTENSION 38 % 60587
2020-10-07 23:34:57 FLAPS EXTENSION 39 % 60586
2020-10-07 23:34:57 FLAPS EXTENSION 42 % 59586
2020-10-07 23:34:57 FLAPS EXTENSION 44 % 59586
2020-10-07 23:34:58 FLAPS EXTENSION 44 % 59585
2020-10-07 23:34:58 FLAPS EXTENSION 46 % 59585
2020-10-07 23:34:58 FLAPS EXTENSION 46 % 58584
2020-10-07 23:35:02 FLAPS EXTENSION 47 % 56555
2020-10-07 23:35:02 FLAPS EXTENSION 50 % 56553
2020-10-07 23:35:03 FLAPS EXTENSION 53 % 56551
2020-10-07 23:35:03 FLAPS EXTENSION 55 % 56550
2020-10-07 23:35:03 FLAPS EXTENSION 57 % 56549
2020-10-07 23:35:03 FLAPS EXTENSION 60 % 55548
2020-10-07 23:35:03 FLAPS EXTENSION 61 % 55547
2020-10-07 23:35:03 FLAPS EXTENSION 64 % 55546
2020-10-07 23:35:04 FLAPS EXTENSION 66 % 55545
2020-10-07 23:35:04 FLAPS EXTENSION 68 % 55544
2020-10-07 23:35:04 FLAPS EXTENSION 70 % 54544
2020-10-07 23:35:04 FLAPS EXTENSION 72 % 54543
2020-10-07 23:35:04 FLAPS EXTENSION 74 % 52542
2020-10-07 23:35:04 FLAPS EXTENSION 76 % 51541
2020-10-07 23:35:05 FLAPS EXTENSION 78 % 50541
2020-10-07 23:35:05 FLAPS EXTENSION 80 % 49540
2020-10-07 23:35:05 FLAPS EXTENSION 82 % 49538
2020-10-07 23:35:05 FLAPS EXTENSION 86 % 48536
2020-10-07 23:35:06 FLAPS EXTENSION 91 % 47533
2020-10-07 23:35:06 FLAPS EXTENSION 98 % 46527
2020-10-07 23:35:07 FLAPS EXTENSION 100 % 48524
2020-10-07 23:35:12 FLAPS EXTENSION 99 % 45481
2020-10-07 23:35:12 FLAPS EXTENSION 97 % 46480
2020-10-07 23:35:12 FLAPS EXTENSION 96 % 46478
2020-10-07 23:35:13 FLAPS EXTENSION 98 % 46473
2020-10-07 23:35:13 FLAPS EXTENSION 100 % 46471
2020-10-07 23:35:13 FLAPS EXTENSION 98 % 48468
2020-10-07 23:35:13 FLAPS EXTENSION 97 % 49467
2020-10-07 23:35:14 FLAPS EXTENSION 96 % 49465
2020-10-07 23:35:14 FLAPS EXTENSION 97 % 49464
2020-10-07 23:35:14 FLAPS EXTENSION 100 % 50462
2020-10-07 23:35:32 CRUISE54386
2020-10-07 23:36:46 LANDING50220
2020-10-07 23:36:59 FLAPS EXTENSION 99 % 37219
2020-10-07 23:36:59 FLAPS EXTENSION 96 % 36219
2020-10-07 23:36:59 FLAPS EXTENSION 95 % 36219
2020-10-07 23:36:59 FLAPS EXTENSION 92 % 36219
2020-10-07 23:36:59 FLAPS EXTENSION 90 % 35219
2020-10-07 23:37:00 FLAPS EXTENSION 87 % 35219
2020-10-07 23:37:00 FLAPS EXTENSION 85 % 35219
2020-10-07 23:37:00 FLAPS EXTENSION 83 % 34219
2020-10-07 23:37:00 FLAPS EXTENSION 81 % 34219
2020-10-07 23:37:00 FLAPS EXTENSION 78 % 34219
2020-10-07 23:37:00 FLAPS EXTENSION 77 % 34219
2020-10-07 23:37:01 FLAPS EXTENSION 75 % 34219
2020-10-07 23:37:01 FLAPS EXTENSION 73 % 34219
2020-10-07 23:37:01 FLAPS EXTENSION 72 % 33219
2020-10-07 23:37:01 FLAPS EXTENSION 70 % 33219
2020-10-07 23:37:01 FLAPS EXTENSION 67 % 33219
2020-10-07 23:37:01 FLAPS EXTENSION 65 % 32219
2020-10-07 23:37:02 FLAPS EXTENSION 63 % 32219
2020-10-07 23:37:02 FLAPS EXTENSION 61 % 32219
2020-10-07 23:37:02 FLAPS EXTENSION 59 % 31219
2020-10-07 23:37:02 FLAPS EXTENSION 56 % 31219
2020-10-07 23:37:02 FLAPS EXTENSION 55 % 31219
2020-10-07 23:37:02 FLAPS EXTENSION 55 % 30219
2020-10-07 23:37:07 TAXI TO THE GATE20219
2020-10-07 23:37:54 TAXI SPEED ABOVE 25 KTS21219
2020-10-07 23:39:57 STOPPING ENGINE 1 4220
 ACARS DATA
DATE IASGSALTITUDEFUEL CONSUMED OATFLIGHT STATUS
2020-10-07 22:13:1200346131BOARDING
2020-10-07 22:14:1200346131BOARDING
2020-10-07 22:15:1200346231BOARDING
2020-10-07 22:16:1200346231BOARDING
2020-10-07 22:17:1200346331BOARDING
2020-10-07 22:18:1200346431BOARDING
2020-10-07 22:19:1200346531BOARDING
2020-10-07 22:20:1207346631BOARDING
2020-10-07 22:21:1220346731TAXI TO THE RWY
2020-10-07 22:22:123234347831TAXI TO THE RWY
2020-10-07 22:23:1263717321130CLIMBING
2020-10-07 22:24:12627011301229CLIMBING
2020-10-07 22:25:12778412591428CRUISE
2020-10-07 22:26:12858914311528CLIMBING
2020-10-07 22:27:12868915791728CRUISE
2020-10-07 22:28:12949816221828CRUISE
2020-10-07 22:29:1210810914882028CRUISE
2020-10-07 22:30:1210110412072129DESCEND
2020-10-07 22:31:1210210111922229CRUISE
2020-10-07 22:32:1210310912082429CRUISE
2020-10-07 22:33:129410313352528DESCEND
2020-10-07 22:34:1210411412712728DESCEND
2020-10-07 22:35:129110111492829CRUISE
2020-10-07 22:36:1211011810713029CLIMBING
2020-10-07 22:37:1210711410533129CLIMBING
2020-10-07 22:38:1210210811013229CRUISE
2020-10-07 22:39:129610411943429CRUISE
2020-10-07 22:40:129510512883528CRUISE
2020-10-07 22:41:129710513783728CRUISE
2020-10-07 22:42:129910614263828CRUISE
2020-10-07 22:43:129810614934028CRUISE
2020-10-07 22:44:129610415064128CRUISE
2020-10-07 22:45:12989716464227CLIMBING
2020-10-07 22:46:129610016754427CRUISE
2020-10-07 22:47:129810317374527CLIMBING
2020-10-07 22:48:129410117904727CRUISE
2020-10-07 22:49:12879519094827CLIMBING
2020-10-07 22:50:12939919894927CLIMBING
2020-10-07 22:51:129610620625126CRUISE
2020-10-07 22:52:129810921085226CRUISE
2020-10-07 22:53:129510621385426CRUISE
2020-10-07 22:54:1212413617495527CRUISE
2020-10-07 22:55:1211312117375627CRUISE
2020-10-07 22:56:1210711916265728CRUISE
2020-10-07 22:57:1211211914315928DESCEND
2020-10-07 22:58:1210511612306028CRUISE
2020-10-07 22:59:1210611410926229DESCEND
2020-10-07 23:00:1210111011556329CRUISE
2020-10-07 23:01:129310312956428CLIMBING
2020-10-07 23:02:12939914376628CRUISE
2020-10-07 23:03:12929316116728CRUISE
2020-10-07 23:04:12899217886927CLIMBING
2020-10-07 23:05:129810718457026CRUISE
2020-10-07 23:06:12859619997126CRUISE
2020-10-07 23:07:1210911816937327DESCEND
2020-10-07 23:08:1210811017377427DESCEND
2020-10-07 23:09:129810518337627DESCEND
2020-10-07 23:10:1210811114807728DESCEND
2020-10-07 23:11:129810716627827CLIMBING
2020-10-07 23:12:129811016928027CLIMBING
2020-10-07 23:13:129810818178127CLIMBING
2020-10-07 23:14:129510818718327CRUISE
2020-10-07 23:15:1211612616998427DESCEND
2020-10-07 23:16:1210111215618528CRUISE
2020-10-07 23:17:1210210715758728CRUISE
2020-10-07 23:18:1210411215038828CRUISE
2020-10-07 23:19:121181269099029DESCEND
2020-10-07 23:20:129610410589129DESCEND
2020-10-07 23:21:1210411011479329CLIMBING
2020-10-07 23:20:3810311511469429CRUISE
2020-10-07 23:21:389510713009628CLIMBING
2020-10-07 23:22:3810611811469729CLIMBING
2020-10-07 23:23:3810311411559829CRUISE
2020-10-07 23:24:388897133610028CRUISE
2020-10-07 23:25:3893101144110128CLIMBING
2020-10-07 23:26:388797157710328CRUISE
2020-10-07 23:27:38102114148810428CRUISE
2020-10-07 23:28:3899110151710628CRUISE
2020-10-07 23:29:38104117143310728CRUISE
2020-10-07 23:30:38103116140810828CRUISE
2020-10-07 23:31:3898110148011028CRUISE
2020-10-07 23:32:38109121138411128CRUISE
2020-10-07 23:33:38107117124111328DESCEND
2020-10-07 23:34:38758476911430DESCEND
2020-10-07 23:35:38525738411531CRUISE
2020-10-07 23:36:38495522911631CRUISE
2020-10-07 23:37:380221811731TAXI TO THE GATE
2020-10-07 23:38:38161721911831TAXI TO THE GATE
2020-10-07 23:39:3871021811931TAXI TO THE GATE
2020-10-07 23:40:380021811931TAXI TO THE GATE